aviador You're here:

KCBE Decoded Metar

CUMBERLAND REG in MD, USA
Report Time2017-07-22 02:10:00
UTC Time2017-07-22 02:32:12
Flight Rules vfr VFR
WindCalm
Visibility9999 m
Phenomena:N/A
Clouds:Broken 038 Hf
Expected CloudBase > 1,200 ft AGL from Temp-Dew spread
Ceiling3,800 ft
Temp25°C (ISA +12)
Dew Point22°C (83% RH)
QNH1017 hPa
Density Alt2,326 ft
Elevation774 ft
Report Wrong Elevation
Raw Report
METAR KCBE 220210Z AUTO 00000KT 10SM BKN038 25/22 A3002 RMK AO1=

Extra information for KCBE:More info

Metar Taf Metar & Taf Last 4 Metars F.Rules Stats Wind Profile Meteogram Temp Stats Airport Information Weather charts Add Link Nearby VenuesMetar ALERT Operation Metar Decoded Social comments

AIRNAV info for KCBE